sensor_id;sensor_type;location;lat;lon;timestamp;P1;durP1;ratioP1;P2;durP2;ratioP2
74483;SDS011;62942;52.462;10.846;2023-04-06T00:01:07;6.1;;;9;;
74483;SDS011;62942;52.462;10.846;2023-04-06T00:02:17;6.2;;;9.5;;
74483;SDS011;62942;52.462;10.846;2023-04-06T00:03:27;5.9;;;8.7;;
74483;SDS011;62942;52.462;10.846;2023-04-06T00:04:37;5.9;;;9.4;;
74483;SDS011;62942;52.462;10.846;2023-04-06T00:05:37;6.3;;;9.3;;
74483;SDS011;62942;52.462;10.846;2023-04-06T00:06:47;6.7;;;9.4;;
74483;SDS011;62942;52.462;10.846;2023-04-06T00:07:57;6.7;;;10.7;;
74483;SDS011;62942;52.462;10.846;2023-04-06T00:09:07;6.7;;;10.2;;
74483;SDS011;62942;52.462;10.846;2023-04-06T00:10:17;6.5;;;8.8;;
74483;SDS011;62942;52.462;10.846;2023-04-06T00:11:17;6.2;;;9.3;;
74483;SDS011;62942;52.462;10.846;2023-04-06T00:12:27;5.8;;;8.5;;
74483;SDS011;62942;52.462;10.846;2023-04-06T00:13:37;5.8;;;9.1;;
74483;SDS011;62942;52.462;10.846;2023-04-06T00:14:47;5.6;;;8.4;;
74483;SDS011;62942;52.462;10.846;2023-04-06T00:15:57;5.7;;;8.3;;
74483;SDS011;62942;52.462;10.846;2023-04-06T00:16:57;5.3;;;8.1;;
74483;SDS011;62942;52.462;10.846;2023-04-06T00:17:57;5.8;;;8.7;;
74483;SDS011;62942;52.462;10.846;2023-04-06T00:19:07;6;;;8;;
74483;SDS011;62942;52.462;10.846;2023-04-06T00:20:07;6.3;;;9.7;;
74483;SDS011;62942;52.462;10.846;2023-04-06T00:21:17;6.2;;;9.3;;
74483;SDS011;62942;52.462;10.846;2023-04-06T00:22:17;6.2;;;9.9;;
74483;SDS011;62942;52.462;10.846;2023-04-06T00:23:27;6.1;;;9.1;;
74483;SDS011;62942;52.462;10.846;2023-04-06T00:24:27;6.6;;;9.3;;
74483;SDS011;62942;52.462;10.846;2023-04-06T00:25:37;6.4;;;8.7;;
74483;SDS011;62942;52.462;10.846;2023-04-06T00:26:47;6.5;;;10.5;;
74483;SDS011;62942;52.462;10.846;2023-04-06T00:27:57;6.4;;;9.1;;
74483;SDS011;62942;52.462;10.846;2023-04-06T00:29:07;6.5;;;11;;
74483;SDS011;62942;52.462;10.846;2023-04-06T00:30:17;6.8;;;9.2;;
74483;SDS011;62942;52.462;10.846;2023-04-06T00:31:27;6.9;;;9.2;;
74483;SDS011;62942;52.462;10.846;2023-04-06T00:32:37;7.3;;;10.6;;
74483;SDS011;62942;52.462;10.846;2023-04-06T00:33:37;7.2;;;9.7;;
74483;SDS011;62942;52.462;10.846;2023-04-06T00:34:37;7.1;;;10.3;;
74483;SDS011;62942;52.462;10.846;2023-04-06T00:35:47;7.4;;;10.7;;
74483;SDS011;62942;52.462;10.846;2023-04-06T00:36:47;7.5;;;10.5;;
74483;SDS011;62942;52.462;10.846;2023-04-06T00:37:57;7.6;;;10.3;;
74483;SDS011;62942;52.462;10.846;2023-04-06T00:39:07;6.9;;;10.1;;
74483;SDS011;62942;52.462;10.846;2023-04-06T00:40:07;7;;;9.5;;
74483;SDS011;62942;52.462;10.846;2023-04-06T00:41:17;7;;;9.1;;
74483;SDS011;62942;52.462;10.846;2023-04-06T00:42:27;6.9;;;9;;
74483;SDS011;62942;52.462;10.846;2023-04-06T00:43:37;6.9;;;9.6;;
74483;SDS011;62942;52.462;10.846;2023-04-06T00:44:37;7.2;;;10;;
74483;SDS011;62942;52.462;10.846;2023-04-06T00:45:47;7.3;;;11.8;;
74483;SDS011;62942;52.462;10.846;2023-04-06T00:46:57;7.1;;;10.1;;
74483;SDS011;62942;52.462;10.846;2023-04-06T00:47:57;6.7;;;9;;
74483;SDS011;62942;52.462;10.846;2023-04-06T00:49:07;7;;;9.7;;
74483;SDS011;62942;52.462;10.846;2023-04-06T00:50:17;7.2;;;10.3;;
74483;SDS011;62942;52.462;10.846;2023-04-06T00:51:17;7.3;;;10.3;;
74483;SDS011;62942;52.462;10.846;2023-04-06T00:52:27;8;;;11.9;;
74483;SDS011;62942;52.462;10.846;2023-04-06T00:53:37;7.7;;;11.2;;
74483;SDS011;62942;52.462;10.846;2023-04-06T00:54:48;8;;;12.8;;
74483;SDS011;62942;52.462;10.846;2023-04-06T00:55:47;7.8;;;12.7;;
74483;SDS011;62942;52.462;10.846;2023-04-06T00:56:57;7.8;;;10.5;;
74483;SDS011;62942;52.462;10.846;2023-04-06T00:58:07;7.7;;;11.3;;
74483;SDS011;62942;52.462;10.846;2023-04-06T00:59:17;7.6;;;11.7;;
74483;SDS011;62942;52.462;10.846;2023-04-06T01:00:27;7.6;;;10.4;;
74483;SDS011;62942;52.462;10.846;2023-04-06T01:01:28;7.6;;;11.9;;
74483;SDS011;62942;52.462;10.846;2023-04-06T01:02:37;7.9;;;11.5;;
74483;SDS011;62942;52.462;10.846;2023-04-06T01:03:37;8;;;11;;
74483;SDS011;62942;52.462;10.846;2023-04-06T01:04:37;8;;;10.4;;
74483;SDS011;62942;52.462;10.846;2023-04-06T01:05:37;8.4;;;12.8;;
74483;SDS011;62942;52.462;10.846;2023-04-06T01:06:47;8.6;;;11.4;;
74483;SDS011;62942;52.462;10.846;2023-04-06T01:07:57;8.5;;;12.4;;
74483;SDS011;62942;52.462;10.846;2023-04-06T01:08:57;8.3;;;10.6;;
74483;SDS011;62942;52.462;10.846;2023-04-06T01:09:57;8.3;;;10.8;;
74483;SDS011;62942;52.462;10.846;2023-04-06T01:10:58;8.5;;;11.3;;
74483;SDS011;62942;52.462;10.846;2023-04-06T01:12:07;8.7;;;14.3;;
74483;SDS011;62942;52.462;10.846;2023-04-06T01:13:17;9.2;;;13;;
74483;SDS011;62942;52.462;10.846;2023-04-06T01:14:17;10.1;;;14.3;;
74483;SDS011;62942;52.462;10.846;2023-04-06T01:15:27;9.6;;;13;;
74483;SDS011;62942;52.462;10.846;2023-04-06T01:16:37;9.4;;;12.8;;
74483;SDS011;62942;52.462;10.846;2023-04-06T01:17:37;9.5;;;13.6;;
74483;SDS011;62942;52.462;10.846;2023-04-06T01:18:47;9.2;;;12.4;;
74483;SDS011;62942;52.462;10.846;2023-04-06T01:19:47;9.2;;;12.5;;
74483;SDS011;62942;52.462;10.846;2023-04-06T01:20:57;9.3;;;12.6;;
74483;SDS011;62942;52.462;10.846;2023-04-06T01:21:57;8.7;;;12.6;;
74483;SDS011;62942;52.462;10.846;2023-04-06T01:22:57;9.1;;;12.6;;
74483;SDS011;62942;52.462;10.846;2023-04-06T01:24:07;9;;;13.3;;
74483;SDS011;62942;52.462;10.846;2023-04-06T01:25:17;8.4;;;12.7;;
74483;SDS011;62942;52.462;10.846;2023-04-06T01:26:27;8.9;;;12.8;;
74483;SDS011;62942;52.462;10.846;2023-04-06T01:27:27;9.3;;;13.6;;
74483;SDS011;62942;52.462;10.846;2023-04-06T01:28:37;8.8;;;12.9;;
74483;SDS011;62942;52.462;10.846;2023-04-06T01:29:47;8.3;;;10.9;;
74483;SDS011;62942;52.462;10.846;2023-04-06T01:30:47;8.5;;;12.7;;
74483;SDS011;62942;52.462;10.846;2023-04-06T01:31:57;8.1;;;12;;
74483;SDS011;62942;52.462;10.846;2023-04-06T01:33:07;8.6;;;11.9;;
74483;SDS011;62942;52.462;10.846;2023-04-06T01:34:17;8.1;;;11.4;;
74483;SDS011;62942;52.462;10.846;2023-04-06T01:35:17;8.1;;;11.8;;
74483;SDS011;62942;52.462;10.846;2023-04-06T01:36:17;8.2;;;11;;
74483;SDS011;62942;52.462;10.846;2023-04-06T01:37:27;8.4;;;12;;
74483;SDS011;62942;52.462;10.846;2023-04-06T01:38:27;8.7;;;12.8;;
74483;SDS011;62942;52.462;10.846;2023-04-06T01:39:37;7.9;;;10.7;;
74483;SDS011;62942;52.462;10.846;2023-04-06T01:40:47;8.3;;;11.7;;
74483;SDS011;62942;52.462;10.846;2023-04-06T01:41:47;7.9;;;12.2;;
74483;SDS011;62942;52.462;10.846;2023-04-06T01:42:57;7.8;;;11.7;;
74483;SDS011;62942;52.462;10.846;2023-04-06T01:44:07;8.4;;;13.5;;
74483;SDS011;62942;52.462;10.846;2023-04-06T01:45:07;7.5;;;10.6;;
74483;SDS011;62942;52.462;10.846;2023-04-06T01:46:17;7.7;;;10.2;;
74483;SDS011;62942;52.462;10.846;2023-04-06T01:47:17;8.1;;;11.6;;
74483;SDS011;62942;52.462;10.846;2023-04-06T01:48:27;8;;;12.1;;
74483;SDS011;62942;52.462;10.846;2023-04-06T01:49:37;6.9;;;9.5;;
74483;SDS011;62942;52.462;10.846;2023-04-06T01:50:47;7.3;;;11.6;;
74483;SDS011;62942;52.462;10.846;2023-04-06T01:51:47;7.4;;;10.4;;
74483;SDS011;62942;52.462;10.846;2023-04-06T01:52:57;7.7;;;10.9;;
74483;SDS011;62942;52.462;10.846;2023-04-06T01:53:57;7.6;;;10.9;;
74483;SDS011;62942;52.462;10.846;2023-04-06T01:55:07;7.7;;;10.8;;
74483;SDS011;62942;52.462;10.846;2023-04-06T01:56:17;7.6;;;10.9;;
74483;SDS011;62942;52.462;10.846;2023-04-06T01:57:17;7.6;;;11.2;;
74483;SDS011;62942;52.462;10.846;2023-04-06T01:58:27;7.4;;;9.9;;
74483;SDS011;62942;52.462;10.846;2023-04-06T01:59:27;8;;;12.1;;
74483;SDS011;62942;52.462;10.846;2023-04-06T02:00:37;8;;;12;;
74483;SDS011;62942;52.462;10.846;2023-04-06T02:01:37;8;;;11.2;;
74483;SDS011;62942;52.462;10.846;2023-04-06T02:02:47;7.9;;;10.6;;
74483;SDS011;62942;52.462;10.846;2023-04-06T02:03:47;8;;;11.2;;
74483;SDS011;62942;52.462;10.846;2023-04-06T02:04:47;8.1;;;11.7;;
74483;SDS011;62942;52.462;10.846;2023-04-06T02:05:57;7.9;;;10.8;;
74483;SDS011;62942;52.462;10.846;2023-04-06T02:06:57;7.8;;;11.2;;
74483;SDS011;62942;52.462;10.846;2023-04-06T02:08:07;7.6;;;10.6;;
74483;SDS011;62942;52.462;10.846;2023-04-06T02:09:07;7.6;;;10.8;;
74483;SDS011;62942;52.462;10.846;2023-04-06T02:10:17;7.4;;;10.2;;
74483;SDS011;62942;52.462;10.846;2023-04-06T02:11:27;7.6;;;10.5;;
74483;SDS011;62942;52.462;10.846;2023-04-06T02:12:37;6.9;;;9.4;;
74483;SDS011;62942;52.462;10.846;2023-04-06T02:13:37;6.8;;;10.1;;
74483;SDS011;62942;52.462;10.846;2023-04-06T02:14:47;7.1;;;10;;
74483;SDS011;62942;52.462;10.846;2023-04-06T02:15:47;7.5;;;9.9;;
74483;SDS011;62942;52.462;10.846;2023-04-06T02:16:57;7.7;;;10.4;;
74483;SDS011;62942;52.462;10.846;2023-04-06T02:18:07;7.9;;;12.1;;
74483;SDS011;62942;52.462;10.846;2023-04-06T02:19:17;7.8;;;11.1;;
74483;SDS011;62942;52.462;10.846;2023-04-06T02:20:17;8.3;;;12.1;;
74483;SDS011;62942;52.462;10.846;2023-04-06T02:21:27;8.5;;;13.1;;
74483;SDS011;62942;52.462;10.846;2023-04-06T02:22:27;8.6;;;11.5;;
74483;SDS011;62942;52.462;10.846;2023-04-06T02:23:37;8.8;;;12.4;;
74483;SDS011;62942;52.462;10.846;2023-04-06T02:24:37;8.4;;;11.9;;
74483;SDS011;62942;52.462;10.846;2023-04-06T02:25:37;9;;;12.9;;
74483;SDS011;62942;52.462;10.846;2023-04-06T02:26:47;9.1;;;13.9;;
74483;SDS011;62942;52.462;10.846;2023-04-06T02:27:57;8.8;;;13.1;;
74483;SDS011;62942;52.462;10.846;2023-04-06T02:28:57;8.9;;;11.9;;
74483;SDS011;62942;52.462;10.846;2023-04-06T02:30:07;9.1;;;12.6;;
74483;SDS011;62942;52.462;10.846;2023-04-06T02:31:17;9.2;;;13.6;;
74483;SDS011;62942;52.462;10.846;2023-04-06T02:32:27;8.9;;;13.3;;
74483;SDS011;62942;52.462;10.846;2023-04-06T02:33:27;8.3;;;11;;
74483;SDS011;62942;52.462;10.846;2023-04-06T02:34:37;8.4;;;12.4;;
74483;SDS011;62942;52.462;10.846;2023-04-06T02:35:47;8.5;;;11.4;;
74483;SDS011;62942;52.462;10.846;2023-04-06T02:36:57;9.3;;;14;;
74483;SDS011;62942;52.462;10.846;2023-04-06T02:37:57;9.2;;;11.6;;
74483;SDS011;62942;52.462;10.846;2023-04-06T02:39:07;9;;;12.8;;
74483;SDS011;62942;52.462;10.846;2023-04-06T02:40:07;9.1;;;13.2;;
74483;SDS011;62942;52.462;10.846;2023-04-06T02:41:07;9;;;12;;
74483;SDS011;62942;52.462;10.846;2023-04-06T02:42:17;9.4;;;12.7;;
74483;SDS011;62942;52.462;10.846;2023-04-06T02:43:27;9.4;;;12.7;;
74483;SDS011;62942;52.462;10.846;2023-04-06T02:44:27;9.8;;;14.1;;
74483;SDS011;62942;52.462;10.846;2023-04-06T02:45:27;9.6;;;13.9;;
74483;SDS011;62942;52.462;10.846;2023-04-06T02:46:37;9.8;;;14.8;;
74483;SDS011;62942;52.462;10.846;2023-04-06T02:47:47;10;;;14.2;;
74483;SDS011;62942;52.462;10.846;2023-04-06T02:48:47;10.2;;;15;;
74483;SDS011;62942;52.462;10.846;2023-04-06T02:49:57;10.6;;;15.1;;
74483;SDS011;62942;52.462;10.846;2023-04-06T02:50:57;11.2;;;15.5;;
74483;SDS011;62942;52.462;10.846;2023-04-06T02:51:57;11.2;;;15.5;;
74483;SDS011;62942;52.462;10.846;2023-04-06T02:53:07;11.4;;;15.2;;
74483;SDS011;62942;52.462;10.846;2023-04-06T02:54:07;11.4;;;15.7;;
74483;SDS011;62942;52.462;10.846;2023-04-06T02:55:17;11.5;;;16.5;;
74483;SDS011;62942;52.462;10.846;2023-04-06T02:56:17;11;;;14.3;;
74483;SDS011;62942;52.462;10.846;2023-04-06T02:57:27;11.2;;;15;;
74483;SDS011;62942;52.462;10.846;2023-04-06T02:58:27;10.5;;;14.8;;
74483;SDS011;62942;52.462;10.846;2023-04-06T02:59:37;10.5;;;16;;
74483;SDS011;62942;52.462;10.846;2023-04-06T03:00:37;9.8;;;13.6;;
74483;SDS011;62942;52.462;10.846;2023-04-06T03:01:47;9.7;;;14;;
74483;SDS011;62942;52.462;10.846;2023-04-06T03:02:47;10.5;;;14.9;;
74483;SDS011;62942;52.462;10.846;2023-04-06T03:03:57;9.8;;;13.7;;
74483;SDS011;62942;52.462;10.846;2023-04-06T03:04:57;10;;;14.6;;
74483;SDS011;62942;52.462;10.846;2023-04-06T03:06:07;9.5;;;13.4;;
74483;SDS011;62942;52.462;10.846;2023-04-06T03:07:07;10;;;15.5;;
74483;SDS011;62942;52.462;10.846;2023-04-06T03:08:17;9.8;;;13;;
74483;SDS011;62942;52.462;10.846;2023-04-06T03:09:17;10.1;;;14.7;;
74483;SDS011;62942;52.462;10.846;2023-04-06T03:10:27;9.7;;;13.8;;
74483;SDS011;62942;52.462;10.846;2023-04-06T03:11:37;10.6;;;14.8;;
74483;SDS011;62942;52.462;10.846;2023-04-06T03:12:37;10.3;;;13.3;;
74483;SDS011;62942;52.462;10.846;2023-04-06T03:13:47;10.5;;;16.1;;
74483;SDS011;62942;52.462;10.846;2023-04-06T03:14:47;10.2;;;13.7;;
74483;SDS011;62942;52.462;10.846;2023-04-06T03:15:47;10.4;;;14.8;;
74483;SDS011;62942;52.462;10.846;2023-04-06T03:16:57;10.4;;;15.4;;
74483;SDS011;62942;52.462;10.846;2023-04-06T03:17:57;10;;;13.7;;
74483;SDS011;62942;52.462;10.846;2023-04-06T03:19:07;10;;;14.3;;
74483;SDS011;62942;52.462;10.846;2023-04-06T03:20:07;10.2;;;13.6;;
74483;SDS011;62942;52.462;10.846;2023-04-06T03:21:17;9.8;;;13.4;;
74483;SDS011;62942;52.462;10.846;2023-04-06T03:22:27;10;;;14.6;;
74483;SDS011;62942;52.462;10.846;2023-04-06T03:23:27;10.2;;;14.5;;
74483;SDS011;62942;52.462;10.846;2023-04-06T03:24:37;10.1;;;14.6;;
74483;SDS011;62942;52.462;10.846;2023-04-06T03:25:47;10.6;;;13.6;;
74483;SDS011;62942;52.462;10.846;2023-04-06T03:26:57;10.2;;;14.5;;
74483;SDS011;62942;52.462;10.846;2023-04-06T03:27:57;10.6;;;15.1;;
74483;SDS011;62942;52.462;10.846;2023-04-06T03:29:07;10.2;;;14.5;;
74483;SDS011;62942;52.462;10.846;2023-04-06T03:30:07;9.8;;;14.5;;
74483;SDS011;62942;52.462;10.846;2023-04-06T03:31:17;10;;;14.5;;
74483;SDS011;62942;52.462;10.846;2023-04-06T03:32:17;10.3;;;15.7;;
74483;SDS011;62942;52.462;10.846;2023-04-06T03:33:17;10.2;;;14.5;;
74483;SDS011;62942;52.462;10.846;2023-04-06T03:34:26;10.2;;;15.6;;
74483;SDS011;62942;52.462;10.846;2023-04-06T03:35:26;9.9;;;15.8;;
74483;SDS011;62942;52.462;10.846;2023-04-06T03:36:37;9.9;;;14.2;;
74483;SDS011;62942;52.462;10.846;2023-04-06T03:37:37;9.9;;;18.9;;
74483;SDS011;62942;52.462;10.846;2023-04-06T03:38:47;9.6;;;14.5;;
74483;SDS011;62942;52.462;10.846;2023-04-06T03:39:47;9.8;;;15.5;;
74483;SDS011;62942;52.462;10.846;2023-04-06T03:40:57;9.3;;;14.3;;
74483;SDS011;62942;52.462;10.846;2023-04-06T03:41:56;9.3;;;15;;
74483;SDS011;62942;52.462;10.846;2023-04-06T03:42:57;9.4;;;14.1;;
74483;SDS011;62942;52.462;10.846;2023-04-06T03:44:07;9.7;;;14.9;;
74483;SDS011;62942;52.462;10.846;2023-04-06T03:45:07;9.3;;;14.1;;
74483;SDS011;62942;52.462;10.846;2023-04-06T03:46:17;9.6;;;15.8;;
74483;SDS011;62942;52.462;10.846;2023-04-06T03:47:17;9.5;;;15.3;;
74483;SDS011;62942;52.462;10.846;2023-04-06T03:48:26;9;;;13.6;;
74483;SDS011;62942;52.462;10.846;2023-04-06T03:49:36;9.8;;;15.9;;
74483;SDS011;62942;52.462;10.846;2023-04-06T03:50:37;9.2;;;13.6;;
74483;SDS011;62942;52.462;10.846;2023-04-06T03:51:46;9.4;;;15.5;;
74483;SDS011;62942;52.462;10.846;2023-04-06T03:52:47;9.5;;;14.7;;
74483;SDS011;62942;52.462;10.846;2023-04-06T03:53:47;9.4;;;13.4;;
74483;SDS011;62942;52.462;10.846;2023-04-06T03:54:47;9.4;;;14.3;;
74483;SDS011;62942;52.462;10.846;2023-04-06T03:55:57;9.9;;;16;;
74483;SDS011;62942;52.462;10.846;2023-04-06T03:57:06;9.2;;;15;;
74483;SDS011;62942;52.462;10.846;2023-04-06T03:58:07;9.6;;;15;;
74483;SDS011;62942;52.462;10.846;2023-04-06T03:59:17;9.9;;;15.5;;
74483;SDS011;62942;52.462;10.846;2023-04-06T04:00:27;9.7;;;15.7;;
74483;SDS011;62942;52.462;10.846;2023-04-06T04:01:36;10.2;;;15.7;;
74483;SDS011;62942;52.462;10.846;2023-04-06T04:02:36;10.3;;;17.6;;
74483;SDS011;62942;52.462;10.846;2023-04-06T04:03:37;9.8;;;16.3;;
74483;SDS011;62942;52.462;10.846;2023-04-06T04:04:46;10.3;;;17.2;;
74483;SDS011;62942;52.462;10.846;2023-04-06T04:05:46;9.7;;;15.4;;
74483;SDS011;62942;52.462;10.846;2023-04-06T04:06:56;9.2;;;13.5;;
74483;SDS011;62942;52.462;10.846;2023-04-06T04:07:56;9.6;;;15.2;;
74483;SDS011;62942;52.462;10.846;2023-04-06T04:08:56;9.7;;;16.5;;
74483;SDS011;62942;52.462;10.846;2023-04-06T04:10:07;9.9;;;16.2;;
74483;SDS011;62942;52.462;10.846;2023-04-06T04:11:07;10.2;;;15.1;;
74483;SDS011;62942;52.462;10.846;2023-04-06T04:12:06;10.4;;;15.7;;
74483;SDS011;62942;52.462;10.846;2023-04-06T04:13:16;10.1;;;15.9;;
74483;SDS011;62942;52.462;10.846;2023-04-06T04:14:16;10.5;;;15.5;;
74483;SDS011;62942;52.462;10.846;2023-04-06T04:15:16;10.1;;;16.8;;
74483;SDS011;62942;52.462;10.846;2023-04-06T04:16:26;10.3;;;14.8;;
74483;SDS011;62942;52.462;10.846;2023-04-06T04:17:26;10;;;17.6;;
74483;SDS011;62942;52.462;10.846;2023-04-06T04:18:26;10.1;;;16.7;;
74483;SDS011;62942;52.462;10.846;2023-04-06T04:19:26;9.9;;;15.5;;
74483;SDS011;62942;52.462;10.846;2023-04-06T04:20:26;10;;;18;;
74483;SDS011;62942;52.462;10.846;2023-04-06T04:21:41;9.6;;;16.3;;
74483;SDS011;62942;52.462;10.846;2023-04-06T04:22:36;9.5;;;16.7;;
74483;SDS011;62942;52.462;10.846;2023-04-06T04:23:46;9.8;;;17.1;;
74483;SDS011;62942;52.462;10.846;2023-04-06T04:24:46;9.4;;;15;;
74483;SDS011;62942;52.462;10.846;2023-04-06T04:25:46;9.6;;;16.2;;
74483;SDS011;62942;52.462;10.846;2023-04-06T04:26:47;9.6;;;14.8;;
74483;SDS011;62942;52.462;10.846;2023-04-06T04:27:56;9.2;;;15.5;;
74483;SDS011;62942;52.462;10.846;2023-04-06T04:28:56;9.6;;;15.2;;
74483;SDS011;62942;52.462;10.846;2023-04-06T04:30:07;9.4;;;15.1;;
74483;SDS011;62942;52.462;10.846;2023-04-06T04:31:06;10;;;16.2;;
74483;SDS011;62942;52.462;10.846;2023-04-06T04:32:17;9.7;;;15.1;;
74483;SDS011;62942;52.462;10.846;2023-04-06T04:33:26;10.2;;;16.9;;
74483;SDS011;62942;52.462;10.846;2023-04-06T04:34:26;10;;;18.8;;
74483;SDS011;62942;52.462;10.846;2023-04-06T04:35:36;9.9;;;17.7;;
74483;SDS011;62942;52.462;10.846;2023-04-06T04:36:36;9.9;;;17.2;;
74483;SDS011;62942;52.462;10.846;2023-04-06T04:37:46;9.7;;;15.6;;
74483;SDS011;62942;52.462;10.846;2023-04-06T04:38:56;10.3;;;18.5;;
74483;SDS011;62942;52.462;10.846;2023-04-06T04:39:56;10;;;15.6;;
74483;SDS011;62942;52.462;10.846;2023-04-06T04:41:06;9.8;;;15.6;;
74483;SDS011;62942;52.462;10.846;2023-04-06T04:42:16;10.5;;;15.1;;
74483;SDS011;62942;52.462;10.846;2023-04-06T04:43:26;10.5;;;15.5;;
74483;SDS011;62942;52.462;10.846;2023-04-06T04:44:26;9.7;;;15.3;;
74483;SDS011;62942;52.462;10.846;2023-04-06T04:45:36;10.1;;;15.5;;
74483;SDS011;62942;52.462;10.846;2023-04-06T04:46:36;9.6;;;15.3;;
74483;SDS011;62942;52.462;10.846;2023-04-06T04:47:46;10.2;;;17.1;;
74483;SDS011;62942;52.462;10.846;2023-04-06T04:48:46;10.2;;;16.4;;
74483;SDS011;62942;52.462;10.846;2023-04-06T04:49:46;9.6;;;15;;
74483;SDS011;62942;52.462;10.846;2023-04-06T04:50:56;9.7;;;15.5;;
74483;SDS011;62942;52.462;10.846;2023-04-06T04:51:56;9.3;;;13.5;;
74483;SDS011;62942;52.462;10.846;2023-04-06T04:53:06;9.9;;;19.1;;
74483;SDS011;62942;52.462;10.846;2023-04-06T04:54:16;9.5;;;15.2;;
74483;SDS011;62942;52.462;10.846;2023-04-06T04:55:27;9.6;;;16.9;;
74483;SDS011;62942;52.462;10.846;2023-04-06T04:56:36;9.5;;;15.9;;
74483;SDS011;62942;52.462;10.846;2023-04-06T04:57:46;9.4;;;16.2;;
74483;SDS011;62942;52.462;10.846;2023-04-06T04:58:46;9.3;;;17.3;;
74483;SDS011;62942;52.462;10.846;2023-04-06T04:59:56;9.7;;;15.4;;
74483;SDS011;62942;52.462;10.846;2023-04-06T05:00:56;9.2;;;15.5;;
74483;SDS011;62942;52.462;10.846;2023-04-06T05:02:06;9.1;;;16.1;;
74483;SDS011;62942;52.462;10.846;2023-04-06T05:03:06;9.4;;;14.5;;
74483;SDS011;62942;52.462;10.846;2023-04-06T05:04:06;9;;;16.7;;
74483;SDS011;62942;52.462;10.846;2023-04-06T05:05:16;9.7;;;15.8;;
74483;SDS011;62942;52.462;10.846;2023-04-06T05:06:16;9.3;;;15.3;;
74483;SDS011;62942;52.462;10.846;2023-04-06T05:07:26;9.3;;;16.1;;
74483;SDS011;62942;52.462;10.846;2023-04-06T05:08:26;9.5;;;15.5;;
74483;SDS011;62942;52.462;10.846;2023-04-06T05:09:36;9.2;;;15.5;;
74483;SDS011;62942;52.462;10.846;2023-04-06T05:10:36;9.1;;;16;;
74483;SDS011;62942;52.462;10.846;2023-04-06T05:11:46;9.4;;;16.1;;
74483;SDS011;62942;52.462;10.846;2023-04-06T05:12:46;9.3;;;15;;
74483;SDS011;62942;52.462;10.846;2023-04-06T05:13:56;9.3;;;14.6;;
74483;SDS011;62942;52.462;10.846;2023-04-06T05:14:56;9.7;;;15.3;;
74483;SDS011;62942;52.462;10.846;2023-04-06T05:16:06;9.5;;;15.6;;
74483;SDS011;62942;52.462;10.846;2023-04-06T05:17:06;9.1;;;16.9;;
74483;SDS011;62942;52.462;10.846;2023-04-06T05:18:16;9.5;;;18.7;;
74483;SDS011;62942;52.462;10.846;2023-04-06T05:19:16;9.1;;;13;;
74483;SDS011;62942;52.462;10.846;2023-04-06T05:20:26;9.2;;;14.7;;
74483;SDS011;62942;52.462;10.846;2023-04-06T05:21:36;8.8;;;15.6;;
74483;SDS011;62942;52.462;10.846;2023-04-06T05:22:36;9.3;;;15.5;;
74483;SDS011;62942;52.462;10.846;2023-04-06T05:23:46;9.2;;;13.8;;
74483;SDS011;62942;52.462;10.846;2023-04-06T05:24:46;9.1;;;15.3;;
74483;SDS011;62942;52.462;10.846;2023-04-06T05:25:56;8.9;;;16.1;;
74483;SDS011;62942;52.462;10.846;2023-04-06T05:27:06;8.5;;;13.8;;
74483;SDS011;62942;52.462;10.846;2023-04-06T05:28:06;8.8;;;15.7;;
74483;SDS011;62942;52.462;10.846;2023-04-06T05:29:16;8.7;;;15.2;;
74483;SDS011;62942;52.462;10.846;2023-04-06T05:30:16;8.6;;;13.6;;
74483;SDS011;62942;52.462;10.846;2023-04-06T05:31:26;8.8;;;14.2;;
74483;SDS011;62942;52.462;10.846;2023-04-06T05:32:26;8.9;;;14.6;;
74483;SDS011;62942;52.462;10.846;2023-04-06T05:33:36;9;;;14.4;;
74483;SDS011;62942;52.462;10.846;2023-04-06T05:34:46;8.5;;;14.6;;
74483;SDS011;62942;52.462;10.846;2023-04-06T05:35:46;8.5;;;16.6;;
74483;SDS011;62942;52.462;10.846;2023-04-06T05:36:56;8.2;;;11.6;;
74483;SDS011;62942;52.462;10.846;2023-04-06T05:38:07;8.5;;;14.4;;
74483;SDS011;62942;52.462;10.846;2023-04-06T05:39:06;8.3;;;13.6;;
74483;SDS011;62942;52.462;10.846;2023-04-06T05:40:16;8.3;;;12.6;;
74483;SDS011;62942;52.462;10.846;2023-04-06T05:41:26;8.4;;;14.3;;
74483;SDS011;62942;52.462;10.846;2023-04-06T05:42:26;8.1;;;14.6;;
74483;SDS011;62942;52.462;10.846;2023-04-06T05:43:36;7.8;;;11.2;;
74483;SDS011;62942;52.462;10.846;2023-04-06T05:44:46;7.8;;;14.2;;
74483;SDS011;62942;52.462;10.846;2023-04-06T05:45:56;8.2;;;13;;
74483;SDS011;62942;52.462;10.846;2023-04-06T05:46:56;7.7;;;12.1;;
74483;SDS011;62942;52.462;10.846;2023-04-06T05:48:06;7.5;;;12.3;;
74483;SDS011;62942;52.462;10.846;2023-04-06T05:49:06;8;;;12.5;;
74483;SDS011;62942;52.462;10.846;2023-04-06T05:50:16;7.5;;;12;;
74483;SDS011;62942;52.462;10.846;2023-04-06T05:51:16;7.5;;;11.8;;
74483;SDS011;62942;52.462;10.846;2023-04-06T05:52:26;7.3;;;12.8;;
74483;SDS011;62942;52.462;10.846;2023-04-06T05:53:36;7.7;;;13.4;;
74483;SDS011;62942;52.462;10.846;2023-04-06T05:54:46;7.2;;;11.6;;
74483;SDS011;62942;52.462;10.846;2023-04-06T05:55:56;6.9;;;13.2;;
74483;SDS011;62942;52.462;10.846;2023-04-06T05:57:06;6.9;;;11.7;;
74483;SDS011;62942;52.462;10.846;2023-04-06T05:58:16;6.8;;;10.3;;
74483;SDS011;62942;52.462;10.846;2023-04-06T05:59:26;6.8;;;11.3;;
74483;SDS011;62942;52.462;10.846;2023-04-06T06:00:36;6.9;;;12.6;;
74483;SDS011;62942;52.462;10.846;2023-04-06T06:01:36;7.3;;;13.8;;
74483;SDS011;62942;52.462;10.846;2023-04-06T06:02:46;7;;;11.8;;
74483;SDS011;62942;52.462;10.846;2023-04-06T06:03:46;6.8;;;10.5;;
74483;SDS011;62942;52.462;10.846;2023-04-06T06:04:46;6.7;;;12;;
74483;SDS011;62942;52.462;10.846;2023-04-06T06:05:59;6.7;;;11.2;;
74483;SDS011;62942;52.462;10.846;2023-04-06T06:06:56;6.5;;;9;;
74483;SDS011;62942;52.462;10.846;2023-04-06T06:08:06;6.4;;;9.7;;
74483;SDS011;62942;52.462;10.846;2023-04-06T06:09:16;6.7;;;10.3;;
74483;SDS011;62942;52.462;10.846;2023-04-06T06:10:26;6.4;;;10.1;;
74483;SDS011;62942;52.462;10.846;2023-04-06T06:11:36;6.5;;;11.1;;
74483;SDS011;62942;52.462;10.846;2023-04-06T06:12:46;6.4;;;9.5;;
74483;SDS011;62942;52.462;10.846;2023-04-06T06:13:56;6.4;;;9.4;;
74483;SDS011;62942;52.462;10.846;2023-04-06T06:14:56;6.5;;;10.1;;
74483;SDS011;62942;52.462;10.846;2023-04-06T06:16:06;6.4;;;11;;
74483;SDS011;62942;52.462;10.846;2023-04-06T06:17:06;6.5;;;11.2;;
74483;SDS011;62942;52.462;10.846;2023-04-06T06:18:16;6.4;;;10.5;;
74483;SDS011;62942;52.462;10.846;2023-04-06T06:19:16;6.1;;;8.8;;
74483;SDS011;62942;52.462;10.846;2023-04-06T06:20:26;6.2;;;10.2;;
74483;SDS011;62942;52.462;10.846;2023-04-06T06:21:36;6.3;;;10.1;;
74483;SDS011;62942;52.462;10.846;2023-04-06T06:22:46;6.1;;;9.2;;
74483;SDS011;62942;52.462;10.846;2023-04-06T06:23:56;6;;;8;;
74483;SDS011;62942;52.462;10.846;2023-04-06T06:25:06;6.2;;;9.9;;
74483;SDS011;62942;52.462;10.846;2023-04-06T06:26:16;6.2;;;9.5;;
74483;SDS011;62942;52.462;10.846;2023-04-06T06:27:26;6.6;;;9.3;;
74483;SDS011;62942;52.462;10.846;2023-04-06T06:28:36;5.8;;;8.7;;
74483;SDS011;62942;52.462;10.846;2023-04-06T06:29:46;6;;;8.5;;
74483;SDS011;62942;52.462;10.846;2023-04-06T06:30:46;6.3;;;9.1;;
74483;SDS011;62942;52.462;10.846;2023-04-06T06:31:46;6.3;;;11;;
74483;SDS011;62942;52.462;10.846;2023-04-06T06:32:56;6.6;;;9.8;;
74483;SDS011;62942;52.462;10.846;2023-04-06T06:33:56;6.2;;;9.5;;
74483;SDS011;62942;52.462;10.846;2023-04-06T06:35:06;6.3;;;9.1;;
74483;SDS011;62942;52.462;10.846;2023-04-06T06:36:06;6.3;;;8.4;;
74483;SDS011;62942;52.462;10.846;2023-04-06T06:37:06;6.2;;;10.7;;
74483;SDS011;62942;52.462;10.846;2023-04-06T06:38:16;6.5;;;9.5;;
74483;SDS011;62942;52.462;10.846;2023-04-06T06:39:16;6.8;;;10.5;;